createdAt,value
2023-05-02T00:01:13.746Z,67.52
2023-05-02T00:05:15.478Z,66.13
2023-05-02T00:09:17.039Z,66.59
2023-05-02T00:13:18.449Z,68.13
2023-05-02T00:17:20.441Z,67.58
2023-05-02T00:21:22.017Z,68.25
2023-05-02T00:25:23.600Z,67.67
2023-05-02T00:29:25.038Z,69.68
2023-05-02T00:33:26.525Z,70.92
2023-05-02T00:37:28.572Z,72.20
2023-05-02T00:41:30.197Z,73.60
2023-05-02T00:45:32.880Z,71.99
2023-05-02T00:49:34.320Z,71.70
2023-05-02T00:53:36.009Z,73.54
2023-05-02T00:57:37.978Z,75.14
2023-05-02T01:01:57.540Z,75.42
2023-05-02T01:06:19.375Z,75.32
2023-05-02T01:10:41.816Z,76.58
2023-05-02T01:14:54.848Z,77.68
2023-05-02T01:18:59.563Z,77.30
2023-05-02T01:23:09.176Z,78.34
2023-05-02T01:27:24.684Z,81.66
2023-05-02T01:31:29.025Z,83.70
2023-05-02T01:35:33.740Z,86.39
2023-05-02T01:39:36.602Z,86.00
2023-05-02T01:43:39.463Z,88.13
2023-05-02T01:47:44.251Z,89.17
2023-05-02T01:51:47.836Z,92.12
2023-05-02T01:55:50.889Z,96.06
2023-05-02T01:59:55.299Z,97.18
2023-05-02T02:03:58.624Z,100.00
2023-05-02T02:08:00.228Z,100.00
2023-05-02T02:12:07.127Z,100.00
2023-05-02T02:16:12.607Z,100.00
2023-05-02T02:20:15.787Z,100.00
2023-05-02T02:24:20.961Z,100.00
2023-05-02T02:28:22.527Z,100.00
2023-05-02T02:32:24.623Z,100.00
2023-05-02T02:36:33.150Z,100.00
2023-05-02T02:40:42.077Z,100.00
2023-05-02T02:44:44.601Z,100.00
2023-05-02T02:49:01.933Z,100.00
2023-05-02T02:53:08.561Z,100.00
2023-05-02T02:57:18.648Z,100.00
2023-05-02T03:01:22.298Z,100.00
2023-05-02T03:05:24.474Z,100.00
2023-05-02T03:09:30.229Z,100.00
2023-05-02T03:13:31.834Z,100.00
2023-05-02T03:17:33.637Z,100.00
2023-05-02T03:21:35.536Z,100.00
2023-05-02T03:25:44.665Z,100.00
2023-05-02T03:29:51.270Z,100.00
2023-05-02T03:33:54.427Z,100.00
2023-05-02T03:37:56.552Z,100.00
2023-05-02T03:41:58.270Z,100.00
2023-05-02T03:46:06.915Z,100.00
2023-05-02T03:50:11.058Z,100.00
2023-05-02T03:54:13.219Z,100.00
2023-05-02T03:58:16.816Z,100.00
2023-05-02T04:02:20.133Z,100.00
2023-05-02T04:06:23.548Z,100.00
2023-05-02T04:10:31.734Z,100.00
2023-05-02T04:14:36.459Z,100.00
2023-05-02T04:18:39.068Z,100.00
2023-05-02T04:22:42.076Z,100.00
2023-05-02T04:26:43.643Z,99.39
2023-05-02T04:30:49.300Z,100.00
2023-05-02T04:34:52.692Z,98.32
2023-05-02T04:38:55.426Z,90.15
2023-05-02T04:42:57.459Z,83.53
2023-05-02T04:47:04.669Z,80.22
2023-05-02T04:51:06.274Z,83.02
2023-05-02T04:55:08.146Z,81.13
2023-05-02T04:59:10.252Z,82.26
2023-05-02T05:03:12.326Z,84.66
2023-05-02T05:07:13.885Z,85.15
2023-05-02T05:11:17.497Z,83.48
2023-05-02T05:15:23.850Z,81.67
2023-05-02T05:19:29.897Z,79.76
2023-05-02T05:23:32.802Z,73.44
2023-05-02T05:27:35.782Z,72.39
2023-05-02T05:31:37.783Z,75.05
2023-05-02T05:35:40.415Z,77.82
2023-05-02T05:39:41.974Z,78.78
2023-05-02T05:43:44.419Z,80.56
2023-05-02T05:47:46.150Z,76.99
2023-05-02T05:51:48.028Z,77.60
2023-05-02T05:55:51.085Z,73.17
2023-05-02T05:59:53.967Z,73.45
2023-05-02T06:03:56.252Z,73.94
2023-05-02T06:07:58.481Z,70.96
2023-05-02T06:12:02.129Z,71.06
2023-05-02T06:16:06.364Z,69.31
2023-05-02T06:20:09.299Z,68.86
2023-05-02T06:24:10.754Z,69.53
2023-05-02T06:28:12.241Z,69.03
2023-05-02T06:32:13.779Z,67.15
2023-05-02T06:36:15.318Z,67.44
2023-05-02T06:40:16.779Z,67.34
2023-05-02T06:44:18.187Z,65.43
2023-05-02T06:48:19.925Z,61.88
2023-05-02T06:52:21.385Z,61.91
2023-05-02T06:56:25.660Z,61.06
2023-05-02T07:00:27.349Z,60.20
2023-05-02T07:04:28.793Z,62.26
2023-05-02T07:08:30.359Z,61.17
2023-05-02T07:12:31.794Z,60.00
2023-05-02T07:16:33.307Z,57.57
2023-05-02T07:20:34.759Z,57.08
2023-05-02T07:24:36.798Z,55.81
2023-05-02T07:28:38.236Z,55.04
2023-05-02T07:32:39.758Z,53.58
2023-05-02T07:36:41.194Z,52.58
2023-05-02T07:40:43.450Z,54.30
2023-05-02T07:44:45.137Z,54.34
2023-05-02T07:48:46.682Z,53.68
2023-05-02T07:52:48.126Z,53.32
2023-05-02T07:56:49.521Z,56.34
2023-05-02T08:00:50.954Z,53.67
2023-05-02T08:04:52.466Z,52.32
2023-05-02T08:08:54.396Z,55.80
2023-05-02T08:12:56.056Z,56.30
2023-05-02T08:16:59.049Z,54.76
2023-05-02T08:21:00.523Z,54.17
2023-05-02T08:25:01.977Z,53.78
2023-05-02T08:29:04.444Z,54.67
2023-05-02T08:33:05.994Z,52.24
2023-05-02T08:37:12.002Z,55.55
2023-05-02T08:41:17.952Z,53.40
2023-05-02T08:45:20.832Z,53.28
2023-05-02T08:49:22.919Z,53.86
2023-05-02T08:53:25.010Z,54.21
2023-05-02T08:57:28.641Z,55.20
2023-05-02T09:01:33.401Z,55.15
2023-05-02T09:05:41.029Z,54.42
2023-05-02T09:09:42.500Z,53.70
2023-05-02T09:13:48.416Z,52.27
2023-05-02T09:17:49.884Z,53.83
2023-05-02T09:21:51.715Z,56.16
2023-05-02T09:25:53.188Z,52.69
2023-05-02T09:30:24.391Z,53.08
2023-05-02T09:34:25.838Z,52.90
2023-05-02T09:38:27.328Z,53.61
2023-05-02T09:42:32.612Z,51.36
2023-05-02T09:46:45.562Z,51.40
2023-05-02T09:50:47.109Z,50.35
2023-05-02T09:54:50.670Z,48.29
2023-05-02T09:58:52.230Z,49.82
2023-05-02T10:02:53.946Z,52.92
2023-05-02T10:06:56.104Z,51.33
2023-05-02T10:10:59.301Z,50.79
2023-05-02T10:15:04.158Z,50.57
2023-05-02T10:19:12.632Z,48.98
2023-05-02T10:23:15.566Z,47.92
2023-05-02T10:27:17.128Z,51.16
2023-05-02T10:31:19.106Z,50.28
2023-05-02T10:35:21.542Z,50.14
2023-05-02T10:39:24.852Z,48.20
2023-05-02T10:43:30.930Z,52.31
2023-05-02T10:47:32.858Z,53.04
2023-05-02T10:51:36.203Z,52.00
2023-05-02T10:55:37.727Z,50.81
2023-05-02T10:59:40.595Z,49.53
2023-05-02T11:04:02.298Z,49.24
2023-05-02T11:08:15.681Z,47.79
2023-05-02T11:12:47.749Z,48.09
2023-05-02T11:17:15.585Z,50.01
2023-05-02T11:21:32.743Z,50.27
2023-05-02T11:25:37.043Z,49.79
2023-05-02T11:29:58.859Z,50.69
2023-05-02T11:34:02.052Z,47.00
2023-05-02T11:38:10.038Z,48.40
2023-05-02T11:42:28.032Z,48.47
2023-05-02T11:46:30.976Z,50.34
2023-05-02T11:50:34.306Z,47.36
2023-05-02T11:54:36.322Z,48.69
2023-05-02T11:58:37.887Z,49.75
2023-05-02T12:02:44.101Z,48.72
2023-05-02T12:06:56.387Z,48.22
2023-05-02T12:10:57.876Z,48.58
2023-05-02T12:15:07.178Z,49.70
2023-05-02T12:19:08.956Z,46.98
2023-05-02T12:23:11.166Z,48.34
2023-05-02T12:27:14.710Z,47.67
2023-05-02T12:31:16.470Z,47.00
2023-05-02T12:35:23.068Z,46.64
2023-05-02T12:39:38.537Z,47.14
2023-05-02T12:43:46.166Z,46.29
2023-05-02T12:47:47.606Z,45.37
2023-05-02T12:51:53.391Z,45.19
2023-05-02T12:56:04.630Z,44.32
2023-05-02T13:00:06.918Z,44.73
2023-05-02T13:04:08.496Z,41.47
2023-05-02T13:08:09.978Z,41.02
2023-05-02T13:12:11.528Z,43.12
2023-05-02T13:16:13.115Z,41.88
2023-05-02T13:20:14.801Z,42.50
2023-05-02T13:24:17.453Z,39.55
2023-05-02T13:28:19.107Z,41.38
2023-05-02T13:32:21.726Z,42.00
2023-05-02T13:36:24.456Z,39.09
2023-05-02T13:40:25.983Z,39.99
2023-05-02T13:44:27.483Z,38.89
2023-05-02T13:48:29.962Z,42.02
2023-05-02T13:52:31.599Z,42.42
2023-05-02T13:56:33.140Z,43.71
2023-05-02T14:00:34.862Z,43.50
2023-05-02T14:04:36.353Z,43.47
2023-05-02T14:08:38.015Z,43.17
2023-05-02T14:12:39.481Z,42.76
2023-05-02T14:16:41.036Z,42.02
2023-05-02T14:20:42.934Z,42.96
2023-05-02T14:24:44.396Z,42.90
2023-05-02T14:28:46.380Z,42.40
2023-05-02T14:32:47.908Z,41.32
2023-05-02T14:36:49.436Z,42.73
2023-05-02T14:40:51.299Z,41.84
2023-05-02T14:44:53.428Z,41.25
2023-05-02T14:48:54.888Z,40.86
2023-05-02T14:52:56.553Z,41.20
2023-05-02T14:56:59.477Z,41.09
2023-05-02T15:01:01.249Z,41.86
2023-05-02T15:05:05.651Z,40.41
2023-05-02T15:09:07.412Z,40.66
2023-05-02T15:13:08.998Z,40.79
2023-05-02T15:17:10.630Z,40.96
2023-05-02T15:21:12.267Z,41.48
2023-05-02T15:25:13.727Z,39.56
2023-05-02T15:29:15.171Z,40.25
2023-05-02T15:33:16.642Z,39.92
2023-05-02T15:37:18.061Z,38.85
2023-05-02T15:41:19.485Z,38.83
2023-05-02T15:45:20.921Z,40.09
2023-05-02T15:49:24.452Z,39.83
2023-05-02T15:53:26.201Z,41.92
2023-05-02T15:57:27.734Z,41.53
2023-05-02T16:01:29.265Z,41.22
2023-05-02T16:05:31.001Z,41.73
2023-05-02T16:09:32.547Z,41.91
2023-05-02T16:13:34.093Z,42.92
2023-05-02T16:17:35.776Z,41.87
2023-05-02T16:21:37.311Z,41.23
2023-05-02T16:25:39.023Z,41.95
2023-05-02T16:29:40.693Z,41.79
2023-05-02T16:33:42.787Z,42.14
2023-05-02T16:37:44.250Z,42.36
2023-05-02T16:41:45.708Z,41.00
2023-05-02T16:45:47.188Z,40.50
2023-05-02T16:49:53.482Z,41.03
2023-05-02T16:53:55.076Z,39.98
2023-05-02T16:57:56.555Z,38.49
2023-05-02T17:01:58.131Z,36.86
2023-05-02T17:06:01.133Z,36.25
2023-05-02T17:10:04.265Z,36.58
2023-05-02T17:14:06.343Z,36.59
2023-05-02T17:18:08.106Z,37.71
2023-05-02T17:22:09.825Z,37.67
2023-05-02T17:26:15.464Z,38.75
2023-05-02T17:30:16.957Z,40.54
2023-05-02T17:34:18.389Z,41.29
2023-05-02T17:38:20.245Z,42.45
2023-05-02T17:42:21.674Z,43.23
2023-05-02T17:46:23.186Z,43.63
2023-05-02T17:50:24.758Z,44.14
2023-05-02T17:54:26.534Z,45.84
2023-05-02T17:58:28.221Z,45.36
2023-05-02T18:02:29.994Z,46.05
2023-05-02T18:06:32.016Z,46.35
2023-05-02T18:10:37.899Z,47.80
2023-05-02T18:14:39.413Z,49.13
2023-05-02T18:18:41.527Z,51.66
2023-05-02T18:22:43.020Z,51.01
2023-05-02T18:26:44.590Z,51.15
2023-05-02T18:30:46.540Z,52.32
2023-05-02T18:34:48.351Z,54.37
2023-05-02T18:38:49.768Z,56.20
2023-05-02T18:42:51.476Z,58.50
2023-05-02T18:46:53.192Z,58.41
2023-05-02T18:50:57.497Z,61.94
2023-05-02T18:54:59.667Z,62.49
2023-05-02T18:59:04.578Z,65.69
2023-05-02T19:03:06.237Z,67.00
2023-05-02T19:07:07.778Z,65.42
2023-05-02T19:11:09.412Z,66.29
2023-05-02T19:15:11.487Z,65.21
2023-05-02T19:19:12.937Z,66.79
2023-05-02T19:23:20.268Z,66.98
2023-05-02T19:27:22.060Z,67.40
2023-05-02T19:31:23.653Z,62.61
2023-05-02T19:35:25.539Z,61.35
2023-05-02T19:39:28.334Z,57.03
2023-05-02T19:43:29.794Z,57.91
2023-05-02T19:47:32.788Z,59.21
2023-05-02T19:51:35.292Z,58.44
2023-05-02T19:55:36.924Z,58.98
2023-05-02T19:59:38.471Z,60.17
2023-05-02T20:03:40.025Z,62.20
2023-05-02T20:07:41.557Z,60.85
2023-05-02T20:11:42.993Z,63.40
2023-05-02T20:15:44.452Z,63.65
2023-05-02T20:19:46.106Z,61.82
2023-05-02T20:23:47.644Z,61.44
2023-05-02T20:27:50.453Z,62.23
2023-05-02T20:31:52.860Z,63.65
2023-05-02T20:35:55.854Z,65.82
2023-05-02T20:39:57.453Z,67.21
2023-05-02T20:44:01.186Z,70.05
2023-05-02T20:48:02.743Z,70.37
2023-05-02T20:52:05.423Z,69.18
2023-05-02T20:56:07.150Z,70.59
2023-05-02T21:00:11.195Z,68.69
2023-05-02T21:04:12.767Z,67.83
2023-05-02T21:08:14.225Z,67.06
2023-05-02T21:12:16.176Z,67.64
2023-05-02T21:16:18.923Z,68.97
2023-05-02T21:20:20.453Z,66.57
2023-05-02T21:24:21.876Z,66.69
2023-05-02T21:28:23.291Z,68.40
2023-05-02T21:32:25.799Z,65.62
2023-05-02T21:36:27.447Z,65.74
2023-05-02T21:40:31.430Z,65.46
2023-05-02T21:44:33.012Z,65.23
2023-05-02T21:48:34.443Z,65.21
2023-05-02T21:52:36.217Z,67.15
2023-05-02T21:56:37.827Z,68.50
2023-05-02T22:00:40.627Z,69.64
2023-05-02T22:04:42.992Z,67.45
2023-05-02T22:08:44.566Z,68.21
2023-05-02T22:12:46.581Z,68.10
2023-05-02T22:16:48.053Z,67.25
2023-05-02T22:20:49.526Z,66.36
2023-05-02T22:24:51.283Z,67.21
2023-05-02T22:28:52.883Z,68.76
2023-05-02T22:32:54.368Z,67.52
2023-05-02T22:36:55.848Z,70.57
2023-05-02T22:40:57.303Z,70.30
2023-05-02T22:44:58.798Z,71.44
2023-05-02T22:49:00.275Z,72.11
2023-05-02T22:53:03.836Z,71.29
2023-05-02T22:57:05.764Z,72.69
2023-05-02T23:01:07.430Z,72.81
2023-05-02T23:05:09.453Z,74.35
2023-05-02T23:09:11.073Z,74.90
2023-05-02T23:13:12.574Z,73.61
2023-05-02T23:17:14.234Z,73.56
2023-05-02T23:21:16.626Z,75.86
2023-05-02T23:25:18.514Z,76.29
2023-05-02T23:29:20.132Z,75.47
2023-05-02T23:33:21.645Z,78.96
2023-05-02T23:37:23.367Z,76.77
2023-05-02T23:41:26.183Z,78.85
2023-05-02T23:45:27.620Z,78.90
2023-05-02T23:49:29.075Z,78.97
2023-05-02T23:53:30.572Z,80.21
2023-05-02T23:57:32.217Z,79.82
